createdAt,value
2023-01-04T00:00:12.707Z,101545.34
2023-01-04T00:02:41.441Z,101547.19
2023-01-04T00:05:10.059Z,101548.06
2023-01-04T00:07:38.418Z,101538.38
2023-01-04T00:10:06.876Z,101534.03
2023-01-04T00:12:36.613Z,101530.41
2023-01-04T00:15:07.369Z,101535.72
2023-01-04T00:17:35.753Z,101534.72
2023-01-04T00:20:06.532Z,101540.81
2023-01-04T00:22:34.924Z,101535.53
2023-01-04T00:25:03.116Z,101532.03
2023-01-04T00:27:31.293Z,101527.53
2023-01-04T00:30:02.345Z,101532.72
2023-01-04T00:32:34.283Z,101530.03
2023-01-04T00:35:07.364Z,101522.84
2023-01-04T00:37:35.470Z,101513.91
2023-01-04T00:40:03.557Z,101512.13
2023-01-04T00:42:33.653Z,101505.06
2023-01-04T00:45:04.109Z,101493.59
2023-01-04T00:47:32.385Z,101505.78
2023-01-04T00:50:01.683Z,101503.97
2023-01-04T00:52:29.733Z,101498.66
2023-01-04T00:56:56.085Z,101492.31
2023-01-04T00:59:24.302Z,101485.34
2023-01-04T01:01:52.656Z,101480.03
2023-01-04T01:04:22.894Z,101471.31
2023-01-04T01:06:52.656Z,101483.66
2023-01-04T01:09:23.188Z,101481.91
2023-01-04T01:11:52.516Z,101485.47
2023-01-04T01:14:24.177Z,101481.25
2023-01-04T01:16:55.863Z,101484.97
2023-01-04T01:19:29.143Z,101474.56
2023-01-04T01:21:57.869Z,101480.00
2023-01-04T01:24:27.272Z,101472.16
2023-01-04T01:26:58.805Z,101464.34
2023-01-04T01:29:28.480Z,101467.13
2023-01-04T01:31:56.553Z,101470.66
2023-01-04T01:34:24.727Z,101473.41
2023-01-04T01:36:52.712Z,101478.63
2023-01-04T01:39:21.104Z,101460.91
2023-01-04T01:41:50.056Z,101468.13
2023-01-04T01:45:03.447Z,101463.78
2023-01-04T01:47:40.984Z,101455.84
2023-01-04T01:50:21.225Z,101454.06
2023-01-04T01:52:53.025Z,101455.72
2023-01-04T01:55:21.808Z,101440.69
2023-01-04T01:57:51.615Z,101434.47
2023-01-04T02:00:22.008Z,101434.56
2023-01-04T02:02:58.564Z,101431.03
2023-01-04T02:05:29.489Z,101427.53
2023-01-04T02:08:03.935Z,101440.72
2023-01-04T02:10:32.705Z,101433.72
2023-01-04T02:13:06.378Z,101426.59
2023-01-04T02:15:50.763Z,101423.06
2023-01-04T02:18:25.934Z,101415.19
2023-01-04T02:20:57.811Z,101402.84
2023-01-04T02:24:06.530Z,101403.00
2023-01-04T02:27:07.515Z,101413.69
2023-01-04T02:29:57.287Z,101407.56
2023-01-04T02:32:40.545Z,101401.41
2023-01-04T02:35:20.551Z,101413.75
2023-01-04T02:37:56.794Z,101391.53
2023-01-04T02:40:32.641Z,101420.78
2023-01-04T02:43:28.011Z,101414.66
2023-01-04T02:46:03.699Z,101407.66
2023-01-04T02:48:55.098Z,101393.56
2023-01-04T02:51:30.751Z,101394.50
2023-01-04T02:53:59.625Z,101393.63
2023-01-04T02:56:37.138Z,101383.03
2023-01-04T02:59:25.136Z,101376.00
2023-01-04T03:02:24.716Z,101379.56
2023-01-04T03:05:24.468Z,101367.25
2023-01-04T03:07:58.529Z,101356.72
2023-01-04T03:10:35.524Z,101358.50
2023-01-04T03:13:11.546Z,101340.03
2023-01-04T03:15:42.119Z,101348.06
2023-01-04T03:18:17.436Z,101349.91
2023-01-04T03:20:49.679Z,101345.56
2023-01-04T03:23:43.545Z,101340.31
2023-01-04T03:26:33.600Z,101330.66
2023-01-04T03:29:26.616Z,101335.97
2023-01-04T03:32:20.353Z,101328.09
2023-01-04T03:35:06.711Z,101328.16
2023-01-04T03:37:45.409Z,101325.56
2023-01-04T03:40:41.537Z,101325.56
2023-01-04T03:43:31.402Z,101320.25
2023-01-04T03:46:24.308Z,101322.03
2023-01-04T03:48:58.251Z,101322.91
2023-01-04T03:51:30.442Z,101320.28
2023-01-04T03:54:05.683Z,101313.22
2023-01-04T03:56:43.007Z,101309.69
2023-01-04T03:59:12.645Z,101311.50
2023-01-04T04:01:43.578Z,101301.81
2023-01-04T04:04:30.210Z,101303.63
2023-01-04T04:07:18.996Z,101303.63
2023-01-04T04:09:55.733Z,101304.50
2023-01-04T04:12:23.722Z,101300.09
2023-01-04T04:14:51.766Z,101300.97
2023-01-04T04:17:19.856Z,101293.03
2023-01-04T04:19:47.826Z,101297.47
2023-01-04T04:22:15.838Z,101297.44
2023-01-04T04:24:43.871Z,101277.13
2023-01-04T04:27:13.219Z,101280.63
2023-01-04T04:29:43.580Z,101280.63
2023-01-04T04:32:11.633Z,101279.72
2023-01-04T04:34:40.377Z,101282.31
2023-01-04T04:37:08.967Z,101268.19
2023-01-04T04:39:37.356Z,101281.47
2023-01-04T04:42:06.629Z,101277.03
2023-01-04T04:44:36.717Z,101268.25
2023-01-04T04:47:04.697Z,101282.31
2023-01-04T04:49:34.838Z,101284.97
2023-01-04T04:52:03.044Z,101277.00
2023-01-04T04:54:30.985Z,101268.13
2023-01-04T04:56:59.007Z,101262.81
2023-01-04T04:59:27.267Z,101271.66
2023-01-04T05:01:56.698Z,101272.47
2023-01-04T05:04:29.436Z,101274.25
2023-01-04T05:06:57.389Z,101273.34
2023-01-04T05:09:27.483Z,101267.19
2023-01-04T05:12:13.252Z,101261.91
2023-01-04T05:14:41.191Z,101255.72
2023-01-04T05:17:11.001Z,101261.84
2023-01-04T05:19:39.191Z,101244.16
2023-01-04T05:22:07.193Z,101244.16
2023-01-04T05:24:35.352Z,101245.88
2023-01-04T05:27:03.248Z,101238.81
2023-01-04T05:29:48.747Z,101246.78
2023-01-04T05:32:18.165Z,101237.97
2023-01-04T05:34:48.608Z,101235.38
2023-01-04T05:37:18.853Z,101242.41
2023-01-04T05:39:46.908Z,101231.84
2023-01-04T05:42:27.979Z,101235.41
2023-01-04T05:44:58.996Z,101211.63
2023-01-04T05:47:29.151Z,101206.34
2023-01-04T05:49:57.267Z,101209.88
2023-01-04T05:52:27.560Z,101201.97
2023-01-04T05:57:56.008Z,101205.50
2023-01-04T06:00:26.660Z,101205.53
2023-01-04T06:02:55.643Z,101196.75
2023-01-04T06:05:25.464Z,101200.28
2023-01-04T06:07:55.963Z,101187.09
2023-01-04T06:10:23.982Z,101180.06
2023-01-04T06:12:51.982Z,101187.13
2023-01-04T06:15:21.667Z,101180.13
2023-01-04T06:17:49.759Z,101187.19
2023-01-04T06:20:17.932Z,101184.56
2023-01-04T06:22:46.160Z,101188.16
2023-01-04T06:25:14.437Z,101192.56
2023-01-04T06:27:42.375Z,101207.56
2023-01-04T06:30:14.109Z,101203.19
2023-01-04T06:32:43.463Z,101209.41
2023-01-04T06:35:11.916Z,101199.72
2023-01-04T06:37:40.770Z,101198.81
2023-01-04T06:40:10.348Z,101190.91
2023-01-04T06:42:47.373Z,101199.72
2023-01-04T06:45:16.282Z,101190.91
2023-01-04T06:47:48.181Z,101186.47
2023-01-04T06:50:18.484Z,101174.13
2023-01-04T06:52:46.753Z,101168.84
2023-01-04T06:55:17.240Z,101139.72
2023-01-04T06:57:45.316Z,101149.41
2023-01-04T07:00:18.729Z,101130.00
2023-01-04T07:03:14.784Z,101121.16
2023-01-04T07:05:41.733Z,101143.22
2023-01-04T07:08:09.859Z,101158.22
2023-01-04T07:10:38.140Z,101161.78
2023-01-04T07:13:07.326Z,101160.88
2023-01-04T07:15:40.603Z,101161.81
2023-01-04T07:18:11.606Z,101166.22
2023-01-04T07:20:42.066Z,101162.69
2023-01-04T07:23:10.112Z,101164.44
2023-01-04T07:25:38.312Z,101161.78
2023-01-04T07:28:06.619Z,101159.16
2023-01-04T07:30:35.005Z,101137.97
2023-01-04T07:33:03.431Z,101140.59
2023-01-04T07:35:35.045Z,101122.09
2023-01-04T07:38:07.769Z,101122.94
2023-01-04T07:40:56.050Z,101124.72
2023-01-04T07:43:28.477Z,101121.19
2023-01-04T07:45:57.484Z,101108.81
2023-01-04T07:48:25.521Z,101104.38
2023-01-04T07:50:54.830Z,101092.91
2023-01-04T07:53:23.093Z,101091.16
2023-01-04T07:55:57.911Z,101083.19
2023-01-04T07:58:26.615Z,101078.75
2023-01-04T08:00:54.652Z,101092.00
2023-01-04T08:03:23.033Z,101098.16
2023-01-04T08:05:51.153Z,101104.34
2023-01-04T08:08:22.880Z,101106.97
2023-01-04T08:10:51.104Z,101099.03
2023-01-04T08:13:19.146Z,101103.47
2023-01-04T08:15:53.584Z,101107.88
2023-01-04T08:18:22.139Z,101122.00
2023-01-04T08:20:56.535Z,101125.53
2023-01-04T08:23:27.962Z,101125.53
2023-01-04T08:25:55.877Z,101122.00
2023-01-04T08:28:23.818Z,101126.41
2023-01-04T08:30:51.995Z,101123.75
2023-01-04T08:33:19.992Z,101114.91
2023-01-04T08:35:48.038Z,101111.41
2023-01-04T08:38:56.159Z,101118.47
2023-01-04T08:41:30.687Z,101120.25
2023-01-04T08:43:54.587Z,101118.47
2023-01-04T08:46:22.612Z,101107.00
2023-01-04T08:48:52.644Z,101105.19
2023-01-04T08:51:20.861Z,101109.63
2023-01-04T08:53:48.890Z,101110.53
2023-01-04T08:56:18.220Z,101044.34
2023-01-04T08:58:46.336Z,101119.34
2023-01-04T09:01:18.941Z,101122.84
2023-01-04T09:03:47.202Z,101121.13
2023-01-04T09:06:16.892Z,101114.91
2023-01-04T09:08:46.116Z,101107.84
2023-01-04T09:11:19.312Z,101107.84
2023-01-04T09:13:47.975Z,101101.63
2023-01-04T09:16:17.987Z,101090.16
2023-01-04T09:18:47.294Z,101090.13
2023-01-04T09:21:16.978Z,101087.47
2023-01-04T09:23:50.128Z,101097.19
2023-01-04T09:26:22.363Z,101094.50
2023-01-04T09:28:51.122Z,101094.50
2023-01-04T09:31:24.190Z,101094.50
2023-01-04T09:36:40.697Z,101083.00
2023-01-04T09:39:13.215Z,101082.97
2023-01-04T09:41:55.686Z,101084.75
2023-01-04T09:45:12.020Z,101080.28
2023-01-04T09:47:31.417Z,101079.38
2023-01-04T09:50:05.473Z,101101.50
2023-01-04T09:52:55.894Z,101088.19
2023-01-04T09:55:37.059Z,101087.31
2023-01-04T09:58:18.530Z,101086.44
2023-01-04T10:00:50.513Z,101091.75
2023-01-04T10:03:22.911Z,101086.47
2023-01-04T10:05:56.414Z,101086.44
2023-01-04T10:08:27.524Z,101078.47
2023-01-04T10:11:08.077Z,101070.50
2023-01-04T10:13:49.975Z,101066.06
2023-01-04T10:17:11.414Z,101073.16
2023-01-04T10:22:40.043Z,101075.69
2023-01-04T10:25:26.273Z,101058.75
2023-01-04T10:28:07.796Z,101052.53
2023-01-04T10:30:43.470Z,101057.75
2023-01-04T10:33:13.898Z,101070.06
2023-01-04T10:35:46.469Z,101058.50
2023-01-04T10:38:18.765Z,101055.84
2023-01-04T10:40:49.013Z,101060.22
2023-01-04T10:43:31.850Z,101049.56
2023-01-04T10:46:28.215Z,101052.09
2023-01-04T10:49:02.609Z,101044.00
2023-01-04T10:51:36.159Z,101040.44
2023-01-04T10:54:08.687Z,101043.94
2023-01-04T10:59:06.314Z,101041.31
2023-01-04T11:01:41.365Z,101034.22
2023-01-04T11:04:14.641Z,101028.78
2023-01-04T11:06:47.678Z,101018.91
2023-01-04T11:09:25.585Z,101012.53
2023-01-04T11:11:57.107Z,101012.47
2023-01-04T11:14:33.311Z,101007.84
2023-01-04T11:17:06.544Z,100997.06
2023-01-04T11:19:37.554Z,101011.06
2023-01-04T11:22:12.064Z,101012.78
2023-01-04T11:25:07.701Z,101006.50
2023-01-04T11:27:42.989Z,101011.69
2023-01-04T11:30:18.541Z,101004.53
2023-01-04T11:32:55.975Z,100994.66
2023-01-04T11:35:42.816Z,100994.56
2023-01-04T11:38:14.312Z,100989.22
2023-01-04T11:40:43.361Z,100989.31
2023-01-04T11:43:16.850Z,100987.56
2023-01-04T11:45:57.047Z,100991.94
2023-01-04T11:48:37.513Z,100993.72
2023-01-04T11:51:10.094Z,100986.47
2023-01-04T11:53:42.826Z,100981.94
2023-01-04T11:56:21.037Z,100976.63
2023-01-04T11:59:24.865Z,100964.09
2023-01-04T12:02:50.611Z,100952.50
2023-01-04T12:05:22.753Z,100951.44
2023-01-04T12:07:56.945Z,100939.91
2023-01-04T12:10:27.793Z,100946.00
2023-01-04T12:12:56.625Z,100938.91
2023-01-04T12:15:33.354Z,100945.84
2023-01-04T12:18:11.793Z,100939.56
2023-01-04T12:20:42.873Z,100940.28
2023-01-04T12:23:14.638Z,100935.69
2023-01-04T12:25:46.450Z,100938.25
2023-01-04T12:28:34.993Z,100949.72
2023-01-04T12:31:34.118Z,100936.41
2023-01-04T12:34:39.100Z,100927.50
2023-01-04T12:37:13.173Z,100912.34
2023-01-04T12:39:44.705Z,100903.47
2023-01-04T12:42:24.776Z,100904.25
2023-01-04T12:45:23.545Z,100920.28
2023-01-04T12:48:12.801Z,100920.34
2023-01-04T12:51:46.967Z,100920.22
2023-01-04T12:54:32.115Z,100909.63
2023-01-04T12:57:25.458Z,100906.94
2023-01-04T12:59:58.467Z,100907.81
2023-01-04T13:02:28.789Z,100892.75
2023-01-04T13:07:52.138Z,100884.94
2023-01-04T13:10:29.096Z,100881.31
2023-01-04T13:13:32.364Z,100849.75
2023-01-04T13:16:16.724Z,100871.59
2023-01-04T13:18:49.233Z,100876.91
2023-01-04T13:21:21.628Z,100873.38
2023-01-04T13:23:52.622Z,100868.84
2023-01-04T13:26:48.292Z,100868.75
2023-01-04T13:29:19.788Z,100876.81
2023-01-04T13:31:54.490Z,100866.16
2023-01-04T13:34:26.528Z,100861.78
2023-01-04T13:37:13.839Z,100855.63
2023-01-04T13:39:46.175Z,100858.25
2023-01-04T13:42:24.293Z,100851.16
2023-01-04T13:45:27.414Z,100821.28
2023-01-04T13:47:59.828Z,100839.56
2023-01-04T13:50:35.834Z,100828.00
2023-01-04T13:53:08.564Z,100837.72
2023-01-04T13:55:39.630Z,100831.56
2023-01-04T13:58:18.444Z,100835.03
2023-01-04T14:00:55.650Z,100832.31
2023-01-04T14:03:31.334Z,100822.56
2023-01-04T14:06:06.008Z,100820.66
2023-01-04T14:08:42.611Z,100816.25
2023-01-04T14:11:35.836Z,100810.75
2023-01-04T14:14:21.886Z,100800.91
2023-01-04T14:17:06.189Z,100800.91
2023-01-04T14:19:54.367Z,100816.97
2023-01-04T14:22:30.043Z,100806.44
2023-01-04T14:25:14.817Z,100798.44
2023-01-04T14:27:44.151Z,100810.66
2023-01-04T14:30:35.286Z,100810.81
2023-01-04T14:33:16.110Z,100814.28
2023-01-04T14:35:47.888Z,100795.56
2023-01-04T14:38:20.235Z,100820.47
2023-01-04T14:40:48.703Z,100816.06
2023-01-04T14:43:35.182Z,100809.03
2023-01-04T14:46:04.851Z,100803.72
2023-01-04T14:48:32.795Z,100792.97
2023-01-04T14:51:01.965Z,100791.34
2023-01-04T14:53:30.326Z,100789.47
2023-01-04T14:56:00.447Z,100782.44
2023-01-04T14:58:28.424Z,100776.28
2023-01-04T15:00:56.430Z,100771.84
2023-01-04T15:03:25.760Z,100775.31
2023-01-04T15:05:56.420Z,100776.97
2023-01-04T15:08:26.925Z,100764.59
2023-01-04T15:10:59.939Z,100756.59
2023-01-04T15:13:36.739Z,100767.31
2023-01-04T15:16:13.463Z,100756.66
2023-01-04T15:18:45.733Z,100761.03
2023-01-04T15:21:14.655Z,100760.16
2023-01-04T15:23:42.584Z,100752.16
2023-01-04T15:26:12.997Z,100761.06
2023-01-04T15:28:40.968Z,100767.47
2023-01-04T15:31:10.795Z,100772.88
2023-01-04T15:33:39.128Z,100774.69
2023-01-04T15:36:12.174Z,100770.25
2023-01-04T15:38:43.052Z,100773.75
2023-01-04T15:41:35.458Z,100770.22
2023-01-04T15:44:02.616Z,100764.78
2023-01-04T15:46:31.174Z,100772.56
2023-01-04T15:48:59.229Z,100777.91
2023-01-04T15:51:28.719Z,100765.38
2023-01-04T15:53:59.133Z,100768.00
2023-01-04T15:59:58.579Z,100762.00
2023-01-04T16:02:27.158Z,100762.84
2023-01-04T16:04:58.352Z,100764.72
2023-01-04T16:07:29.786Z,100765.59
2023-01-04T16:10:05.996Z,100767.31
2023-01-04T16:12:43.381Z,100760.22
2023-01-04T16:15:15.352Z,100752.28
2023-01-04T16:17:45.044Z,100753.94
2023-01-04T16:20:14.679Z,100751.31
2023-01-04T16:22:43.349Z,100750.44
2023-01-04T16:25:12.657Z,100731.03
2023-01-04T16:27:44.151Z,100737.13
2023-01-04T16:30:15.918Z,100748.75
2023-01-04T16:32:45.431Z,100746.22
2023-01-04T16:35:13.545Z,100750.69
2023-01-04T16:37:43.148Z,100751.47
2023-01-04T16:40:15.743Z,100745.31
2023-01-04T16:42:50.792Z,100751.56
2023-01-04T16:45:22.686Z,100748.88
2023-01-04T16:47:51.434Z,100747.25
2023-01-04T16:50:23.255Z,100737.59
2023-01-04T16:52:51.628Z,100736.19
2023-01-04T16:55:23.847Z,100745.22
2023-01-04T16:57:52.565Z,100746.28
2023-01-04T17:00:22.339Z,100733.09
2023-01-04T17:02:52.998Z,100733.22
2023-01-04T17:05:25.939Z,100740.25
2023-01-04T17:07:54.233Z,100734.84
2023-01-04T17:10:29.500Z,100727.78
2023-01-04T17:12:58.095Z,100728.59
2023-01-04T17:15:45.210Z,100732.97
2023-01-04T17:18:15.353Z,100721.44
2023-01-04T17:20:43.611Z,100728.53
2023-01-04T17:23:11.651Z,100720.47
2023-01-04T17:25:40.038Z,100714.31
2023-01-04T17:28:07.975Z,100717.75
2023-01-04T17:30:39.237Z,100723.97
2023-01-04T17:33:07.571Z,100723.91
2023-01-04T17:35:37.274Z,100731.03
2023-01-04T17:38:08.394Z,100719.53
2023-01-04T17:40:39.440Z,100725.50
2023-01-04T17:43:10.845Z,100722.88
2023-01-04T17:45:40.261Z,100715.72
2023-01-04T17:48:10.710Z,100720.22
2023-01-04T17:50:38.672Z,100721.94
2023-01-04T17:53:06.840Z,100721.06
2023-01-04T17:55:35.602Z,100711.34
2023-01-04T17:58:09.757Z,100710.41
2023-01-04T18:00:43.921Z,100706.91
2023-01-04T18:03:12.141Z,100711.28
2023-01-04T18:05:51.575Z,100718.38
2023-01-04T18:08:20.871Z,100715.72
2023-01-04T18:11:06.655Z,100708.69
2023-01-04T18:13:36.549Z,100709.56
2023-01-04T18:16:23.777Z,100718.44
2023-01-04T18:18:53.316Z,100724.69
2023-01-04T18:21:30.838Z,100722.97
2023-01-04T18:24:35.305Z,100706.97
2023-01-04T18:29:40.350Z,100718.69
2023-01-04T18:32:11.969Z,100725.75
2023-01-04T18:34:42.651Z,100723.97
2023-01-04T18:37:13.698Z,100734.63
2023-01-04T18:39:41.837Z,100720.38
2023-01-04T18:42:12.839Z,100719.47
2023-01-04T18:44:48.509Z,100709.72
2023-01-04T18:47:20.072Z,100715.09
2023-01-04T18:49:49.340Z,100702.72
2023-01-04T18:52:20.743Z,100705.38
2023-01-04T18:54:53.931Z,100716.13
2023-01-04T18:57:24.142Z,100706.28
2023-01-04T18:59:53.151Z,100703.44
2023-01-04T19:02:22.638Z,100700.69
2023-01-04T19:04:50.840Z,100698.91
2023-01-04T19:07:21.641Z,100707.59
2023-01-04T19:09:53.094Z,100707.66
2023-01-04T19:12:21.276Z,100699.66
2023-01-04T19:14:51.934Z,100702.25
2023-01-04T19:17:24.320Z,100700.47
2023-01-04T19:19:56.122Z,100683.66
2023-01-04T19:22:24.396Z,100681.88
2023-01-04T19:24:52.366Z,100692.47
2023-01-04T19:27:20.518Z,100686.28
2023-01-04T19:29:48.632Z,100674.75
2023-01-04T19:32:19.224Z,100660.75
2023-01-04T19:34:49.404Z,100700.28
2023-01-04T19:37:18.716Z,100686.16
2023-01-04T19:39:46.685Z,100697.69
2023-01-04T19:42:14.631Z,100705.56
2023-01-04T19:44:42.777Z,100704.66
2023-01-04T19:47:15.211Z,100694.06
2023-01-04T19:49:45.314Z,100706.28
2023-01-04T19:52:13.329Z,100696.50
2023-01-04T19:54:45.023Z,100697.41
2023-01-04T19:57:13.025Z,100704.38
2023-01-04T19:59:41.314Z,100703.41
2023-01-04T20:02:11.029Z,100710.41
2023-01-04T20:04:39.526Z,100717.44
2023-01-04T20:07:08.024Z,100716.59
2023-01-04T20:09:36.375Z,100709.50
2023-01-04T20:12:06.564Z,100720.97
2023-01-04T20:14:34.965Z,100719.22
2023-01-04T20:17:03.151Z,100725.41
2023-01-04T20:19:31.163Z,100725.91
2023-01-04T20:21:59.115Z,100724.34
2023-01-04T20:24:27.856Z,100732.91
2023-01-04T20:26:55.966Z,100754.41
2023-01-04T20:29:25.506Z,100742.06
2023-01-04T20:31:53.494Z,100726.28
2023-01-04T20:34:21.660Z,100725.59
2023-01-04T20:36:49.931Z,100716.84
2023-01-04T20:39:17.969Z,100725.81
2023-01-04T20:42:00.116Z,100725.34
2023-01-04T20:44:29.984Z,100719.28
2023-01-04T20:46:58.200Z,100711.34
2023-01-04T20:49:26.296Z,100715.72
2023-01-04T20:51:54.612Z,100718.31
2023-01-04T20:54:22.637Z,100712.03
2023-01-04T20:59:57.769Z,100715.22
2023-01-04T21:02:30.229Z,100706.25
2023-01-04T21:05:01.255Z,100707.88
2023-01-04T21:07:29.782Z,100714.88
2023-01-04T21:09:57.896Z,100697.97
2023-01-04T21:12:25.924Z,100709.44
2023-01-04T21:14:57.814Z,100706.63
2023-01-04T21:17:25.852Z,100702.09
2023-01-04T21:19:54.479Z,100693.06
2023-01-04T21:22:23.925Z,100685.00
2023-01-04T21:24:54.164Z,100684.00
2023-01-04T21:27:24.286Z,100690.06
2023-01-04T21:29:52.500Z,100690.09
2023-01-04T21:32:21.903Z,100690.88
2023-01-04T21:34:50.047Z,100681.94
2023-01-04T21:37:18.143Z,100691.63
2023-01-04T21:39:50.823Z,100688.13
2023-01-04T21:42:18.955Z,100689.09
2023-01-04T21:44:47.160Z,100685.47
2023-01-04T21:47:17.557Z,100677.28
2023-01-04T21:49:47.164Z,100680.81
2023-01-04T21:52:17.571Z,100677.16
2023-01-04T21:54:45.603Z,100675.47
2023-01-04T21:57:13.577Z,100680.88
2023-01-04T21:59:41.937Z,100687.19
2023-01-04T22:02:15.750Z,100678.34
2023-01-04T22:04:44.492Z,100672.84
2023-01-04T22:07:16.357Z,100669.28
2023-01-04T22:09:44.370Z,100662.13
2023-01-04T22:12:12.366Z,100655.94
2023-01-04T22:14:40.412Z,100649.66
2023-01-04T22:17:08.428Z,100641.63
2023-01-04T22:19:36.608Z,100647.06
2023-01-04T22:22:08.418Z,100638.94
2023-01-04T22:24:40.232Z,100648.69
2023-01-04T22:27:08.753Z,100643.25
2023-01-04T22:29:37.052Z,100646.97
2023-01-04T22:32:06.969Z,100627.50
2023-01-04T22:34:37.563Z,100639.63
2023-01-04T22:37:05.830Z,100637.19
2023-01-04T22:39:34.222Z,100633.66
2023-01-04T22:42:03.876Z,100636.19
2023-01-04T22:44:36.516Z,100624.97
2023-01-04T22:47:05.022Z,100616.06
2023-01-04T22:49:33.430Z,100632.91
2023-01-04T22:52:01.733Z,100633.00
2023-01-04T22:54:30.361Z,100630.66
2023-01-04T22:57:03.174Z,100643.41
2023-01-04T22:59:31.227Z,100645.28
2023-01-04T23:02:01.917Z,100638.97
2023-01-04T23:04:32.632Z,100637.44
2023-01-04T23:07:01.231Z,100636.78
2023-01-04T23:09:32.313Z,100644.06
2023-01-04T23:12:05.119Z,100638.03
2023-01-04T23:14:33.080Z,100632.88
2023-01-04T23:17:03.744Z,100617.03
2023-01-04T23:19:32.807Z,100616.28
2023-01-04T23:22:04.505Z,100621.69
2023-01-04T23:24:34.293Z,100609.25
2023-01-04T23:27:03.679Z,100616.41
2023-01-04T23:29:31.781Z,100611.16
2023-01-04T23:32:00.600Z,100605.75
2023-01-04T23:34:29.897Z,100602.03
2023-01-04T23:37:02.538Z,100604.63
2023-01-04T23:39:30.751Z,100608.94
2023-01-04T23:42:00.759Z,100599.16
2023-01-04T23:44:33.752Z,100590.25
2023-01-04T23:49:34.899Z,100609.50
2023-01-04T23:52:04.131Z,100606.69
2023-01-04T23:54:36.123Z,100592.38
2023-01-04T23:57:04.233Z,100608.25
2023-01-04T23:59:36.726Z,100606.31
